sensor_id;sensor_type;location;lat;lon;timestamp;temperature;humidity
5560;DHT22;2803;47.916;8.074;2023-01-19T00:00:04;0.50;99.90
5560;DHT22;2803;47.916;8.074;2023-01-19T00:02:34;0.60;99.90
5560;DHT22;2803;47.916;8.074;2023-01-19T00:05:00;0.80;99.90
5560;DHT22;2803;47.916;8.074;2023-01-19T00:07:28;0.80;99.90
5560;DHT22;2803;47.916;8.074;2023-01-19T00:09:55;0.90;99.90
5560;DHT22;2803;47.916;8.074;2023-01-19T00:12:22;1.00;99.90
5560;DHT22;2803;47.916;8.074;2023-01-19T00:14:49;0.80;99.90
5560;DHT22;2803;47.916;8.074;2023-01-19T00:17:16;-0.10;99.90
5560;DHT22;2803;47.916;8.074;2023-01-19T00:19:44;-0.20;99.90
5560;DHT22;2803;47.916;8.074;2023-01-19T00:22:10;0.00;99.90
5560;DHT22;2803;47.916;8.074;2023-01-19T00:24:37;0.30;99.90
5560;DHT22;2803;47.916;8.074;2023-01-19T00:27:04;0.30;99.90
5560;DHT22;2803;47.916;8.074;2023-01-19T00:29:30;0.00;99.90
5560;DHT22;2803;47.916;8.074;2023-01-19T00:31:58;-0.20;99.90
5560;DHT22;2803;47.916;8.074;2023-01-19T00:34:25;-0.80;99.90
5560;DHT22;2803;47.916;8.074;2023-01-19T00:37:03;-0.70;99.90
5560;DHT22;2803;47.916;8.074;2023-01-19T00:39:30;-0.50;99.90
5560;DHT22;2803;47.916;8.074;2023-01-19T00:41:57;-0.10;99.90
5560;DHT22;2803;47.916;8.074;2023-01-19T00:44:37;0.10;99.90
5560;DHT22;2803;47.916;8.074;2023-01-19T00:47:04;0.30;99.90
5560;DHT22;2803;47.916;8.074;2023-01-19T00:49:30;0.30;99.90
5560;DHT22;2803;47.916;8.074;2023-01-19T00:51:57;-0.30;99.90
5560;DHT22;2803;47.916;8.074;2023-01-19T00:54:25;-1.00;99.90
5560;DHT22;2803;47.916;8.074;2023-01-19T00:56:51;-0.90;99.90
5560;DHT22;2803;47.916;8.074;2023-01-19T00:59:18;-0.40;99.90
5560;DHT22;2803;47.916;8.074;2023-01-19T01:01:45;-0.60;99.90
5560;DHT22;2803;47.916;8.074;2023-01-19T01:04:12;-0.80;99.90
5560;DHT22;2803;47.916;8.074;2023-01-19T01:06:38;-1.00;99.90
5560;DHT22;2803;47.916;8.074;2023-01-19T01:09:05;-0.90;99.90
5560;DHT22;2803;47.916;8.074;2023-01-19T01:11:37;-1.00;99.90
5560;DHT22;2803;47.916;8.074;2023-01-19T01:14:05;-0.60;99.90
5560;DHT22;2803;47.916;8.074;2023-01-19T01:16:32;-0.50;99.90
5560;DHT22;2803;47.916;8.074;2023-01-19T01:18:58;-1.00;99.90
5560;DHT22;2803;47.916;8.074;2023-01-19T01:21:25;-1.20;99.90
5560;DHT22;2803;47.916;8.074;2023-01-19T01:23:52;-1.00;99.90
5560;DHT22;2803;47.916;8.074;2023-01-19T01:26:19;-1.00;99.90
5560;DHT22;2803;47.916;8.074;2023-01-19T01:28:47;-1.20;99.90
5560;DHT22;2803;47.916;8.074;2023-01-19T01:31:13;-1.30;99.90
5560;DHT22;2803;47.916;8.074;2023-01-19T01:33:40;-1.30;99.90
5560;DHT22;2803;47.916;8.074;2023-01-19T01:36:07;-1.10;99.90
5560;DHT22;2803;47.916;8.074;2023-01-19T01:38:34;-0.80;99.90
5560;DHT22;2803;47.916;8.074;2023-01-19T01:41:00;-1.10;99.90
5560;DHT22;2803;47.916;8.074;2023-01-19T01:43:41;-1.60;99.90
5560;DHT22;2803;47.916;8.074;2023-01-19T01:46:10;-1.30;99.90
5560;DHT22;2803;47.916;8.074;2023-01-19T01:48:41;-1.20;99.90
5560;DHT22;2803;47.916;8.074;2023-01-19T01:51:14;-1.60;99.90
5560;DHT22;2803;47.916;8.074;2023-01-19T01:53:56;-2.00;99.90
5560;DHT22;2803;47.916;8.074;2023-01-19T01:56:29;-1.50;99.90
5560;DHT22;2803;47.916;8.074;2023-01-19T01:58:58;-1.30;99.90
5560;DHT22;2803;47.916;8.074;2023-01-19T02:01:27;-1.70;99.90
5560;DHT22;2803;47.916;8.074;2023-01-19T02:04:08;-1.60;99.90
5560;DHT22;2803;47.916;8.074;2023-01-19T02:06:35;-2.00;99.90
5560;DHT22;2803;47.916;8.074;2023-01-19T02:09:16;-2.40;99.90
5560;DHT22;2803;47.916;8.074;2023-01-19T02:11:56;-2.40;99.90
5560;DHT22;2803;47.916;8.074;2023-01-19T02:14:37;-2.00;99.90
5560;DHT22;2803;47.916;8.074;2023-01-19T02:17:06;-2.10;99.90
5560;DHT22;2803;47.916;8.074;2023-01-19T02:19:37;-2.70;99.90
5560;DHT22;2803;47.916;8.074;2023-01-19T02:22:10;-2.10;99.90
5560;DHT22;2803;47.916;8.074;2023-01-19T02:24:39;-1.60;99.90
5560;DHT22;2803;47.916;8.074;2023-01-19T02:27:07;-2.10;99.90
5560;DHT22;2803;47.916;8.074;2023-01-19T02:29:34;-1.80;99.90
5560;DHT22;2803;47.916;8.074;2023-01-19T02:32:01;-1.70;99.90
5560;DHT22;2803;47.916;8.074;2023-01-19T02:34:27;-2.20;99.90
5560;DHT22;2803;47.916;8.074;2023-01-19T02:36:57;-1.90;99.90
5560;DHT22;2803;47.916;8.074;2023-01-19T02:39:26;-1.70;99.90
5560;DHT22;2803;47.916;8.074;2023-01-19T02:41:59;-2.10;99.90
5560;DHT22;2803;47.916;8.074;2023-01-19T02:44:28;-2.30;99.90
5560;DHT22;2803;47.916;8.074;2023-01-19T02:46:56;-2.60;99.90
5560;DHT22;2803;47.916;8.074;2023-01-19T02:49:26;-2.50;99.90
5560;DHT22;2803;47.916;8.074;2023-01-19T02:51:52;-2.40;99.90
5560;DHT22;2803;47.916;8.074;2023-01-19T02:54:28;-2.90;99.90
5560;DHT22;2803;47.916;8.074;2023-01-19T02:57:09;-2.70;99.90
5560;DHT22;2803;47.916;8.074;2023-01-19T02:59:47;-2.10;99.90
5560;DHT22;2803;47.916;8.074;2023-01-19T03:02:25;-2.00;99.90
5560;DHT22;2803;47.916;8.074;2023-01-19T03:04:59;-2.40;99.90
5560;DHT22;2803;47.916;8.074;2023-01-19T03:07:40;-2.20;99.90
5560;DHT22;2803;47.916;8.074;2023-01-19T03:10:14;-2.60;99.90
5560;DHT22;2803;47.916;8.074;2023-01-19T03:12:49;-2.60;99.90
5560;DHT22;2803;47.916;8.074;2023-01-19T03:15:20;-2.10;99.90
5560;DHT22;2803;47.916;8.074;2023-01-19T03:17:50;-1.80;99.90
5560;DHT22;2803;47.916;8.074;2023-01-19T03:20:21;-2.20;99.90
5560;DHT22;2803;47.916;8.074;2023-01-19T03:22:52;-2.50;99.90
5560;DHT22;2803;47.916;8.074;2023-01-19T03:25:22;-2.50;99.90
5560;DHT22;2803;47.916;8.074;2023-01-19T03:27:53;-2.40;99.90
5560;DHT22;2803;47.916;8.074;2023-01-19T03:30:25;-2.40;99.90
5560;DHT22;2803;47.916;8.074;2023-01-19T03:32:56;-2.00;99.90
5560;DHT22;2803;47.916;8.074;2023-01-19T03:35:28;-1.60;99.90
5560;DHT22;2803;47.916;8.074;2023-01-19T03:37:57;-1.80;99.90
5560;DHT22;2803;47.916;8.074;2023-01-19T03:40:28;-1.70;99.90
5560;DHT22;2803;47.916;8.074;2023-01-19T03:42:58;-2.50;99.90
5560;DHT22;2803;47.916;8.074;2023-01-19T03:45:25;-2.70;99.90
5560;DHT22;2803;47.916;8.074;2023-01-19T03:47:53;-2.50;99.90
5560;DHT22;2803;47.916;8.074;2023-01-19T03:50:24;-2.00;99.90
5560;DHT22;2803;47.916;8.074;2023-01-19T03:53:00;-1.70;99.90
5560;DHT22;2803;47.916;8.074;2023-01-19T03:55:27;-2.20;99.90
5560;DHT22;2803;47.916;8.074;2023-01-19T03:57:54;-2.40;99.90
5560;DHT22;2803;47.916;8.074;2023-01-19T04:00:23;-2.10;99.90
5560;DHT22;2803;47.916;8.074;2023-01-19T04:02:50;-2.00;99.90
5560;DHT22;2803;47.916;8.074;2023-01-19T04:05:17;-2.30;99.90
5560;DHT22;2803;47.916;8.074;2023-01-19T04:07:47;-1.80;99.90
5560;DHT22;2803;47.916;8.074;2023-01-19T04:10:14;-2.00;99.90
5560;DHT22;2803;47.916;8.074;2023-01-19T04:12:41;-1.90;99.90
5560;DHT22;2803;47.916;8.074;2023-01-19T04:15:08;-1.80;99.90
5560;DHT22;2803;47.916;8.074;2023-01-19T04:17:36;-1.60;99.90
5560;DHT22;2803;47.916;8.074;2023-01-19T04:20:05;-1.60;99.90
5560;DHT22;2803;47.916;8.074;2023-01-19T04:22:32;-1.50;99.90
5560;DHT22;2803;47.916;8.074;2023-01-19T04:24:58;-2.00;99.90
5560;DHT22;2803;47.916;8.074;2023-01-19T04:27:25;-2.70;99.90
5560;DHT22;2803;47.916;8.074;2023-01-19T04:29:53;-2.70;99.90
5560;DHT22;2803;47.916;8.074;2023-01-19T04:32:20;-2.20;99.90
5560;DHT22;2803;47.916;8.074;2023-01-19T04:34:48;-2.00;99.90
5560;DHT22;2803;47.916;8.074;2023-01-19T04:37:15;-2.40;99.90
5560;DHT22;2803;47.916;8.074;2023-01-19T04:39:42;-2.40;99.90
5560;DHT22;2803;47.916;8.074;2023-01-19T04:42:08;-2.70;99.90
5560;DHT22;2803;47.916;8.074;2023-01-19T04:44:35;-3.20;99.90
5560;DHT22;2803;47.916;8.074;2023-01-19T04:47:02;-2.70;99.90
5560;DHT22;2803;47.916;8.074;2023-01-19T04:49:28;-2.60;99.90
5560;DHT22;2803;47.916;8.074;2023-01-19T04:51:56;-2.50;99.90
5560;DHT22;2803;47.916;8.074;2023-01-19T04:54:24;-2.40;99.90
5560;DHT22;2803;47.916;8.074;2023-01-19T04:56:51;-2.90;99.90
5560;DHT22;2803;47.916;8.074;2023-01-19T04:59:18;-3.40;99.90
5560;DHT22;2803;47.916;8.074;2023-01-19T05:01:46;-3.40;99.90
5560;DHT22;2803;47.916;8.074;2023-01-19T05:04:12;-3.20;99.90
5560;DHT22;2803;47.916;8.074;2023-01-19T05:06:39;-2.80;99.90
5560;DHT22;2803;47.916;8.074;2023-01-19T05:09:07;-2.40;99.90
5560;DHT22;2803;47.916;8.074;2023-01-19T05:11:36;-2.40;99.90
5560;DHT22;2803;47.916;8.074;2023-01-19T05:14:02;-2.70;99.90
5560;DHT22;2803;47.916;8.074;2023-01-19T05:16:29;-2.80;99.90
5560;DHT22;2803;47.916;8.074;2023-01-19T05:18:55;-3.00;99.90
5560;DHT22;2803;47.916;8.074;2023-01-19T05:21:22;-3.30;99.90
5560;DHT22;2803;47.916;8.074;2023-01-19T05:23:49;-4.10;99.90
5560;DHT22;2803;47.916;8.074;2023-01-19T05:26:17;-3.90;99.90
5560;DHT22;2803;47.916;8.074;2023-01-19T05:28:44;-3.70;99.90
5560;DHT22;2803;47.916;8.074;2023-01-19T05:31:10;-3.50;99.90
5560;DHT22;2803;47.916;8.074;2023-01-19T05:33:37;-3.10;99.90
5560;DHT22;2803;47.916;8.074;2023-01-19T05:36:04;-3.20;99.90
5560;DHT22;2803;47.916;8.074;2023-01-19T05:38:30;-2.80;99.90
5560;DHT22;2803;47.916;8.074;2023-01-19T05:40:58;-2.50;99.90
5560;DHT22;2803;47.916;8.074;2023-01-19T05:43:26;-2.70;99.90
5560;DHT22;2803;47.916;8.074;2023-01-19T05:45:52;-2.80;99.90
5560;DHT22;2803;47.916;8.074;2023-01-19T05:48:19;-2.70;99.90
5560;DHT22;2803;47.916;8.074;2023-01-19T05:50:46;-2.70;99.90
5560;DHT22;2803;47.916;8.074;2023-01-19T05:53:14;-2.60;99.90
5560;DHT22;2803;47.916;8.074;2023-01-19T05:55:41;-3.00;99.90
5560;DHT22;2803;47.916;8.074;2023-01-19T05:58:07;-3.90;99.90
5560;DHT22;2803;47.916;8.074;2023-01-19T06:00:35;-3.90;99.90
5560;DHT22;2803;47.916;8.074;2023-01-19T06:03:02;-3.90;99.90
5560;DHT22;2803;47.916;8.074;2023-01-19T06:05:30;-3.50;99.90
5560;DHT22;2803;47.916;8.074;2023-01-19T06:07:58;-3.50;99.90
5560;DHT22;2803;47.916;8.074;2023-01-19T06:10:25;-3.60;99.90
5560;DHT22;2803;47.916;8.074;2023-01-19T06:12:52;-3.60;99.90
5560;DHT22;2803;47.916;8.074;2023-01-19T06:15:18;-3.60;99.90
5560;DHT22;2803;47.916;8.074;2023-01-19T06:17:46;-3.00;99.90
5560;DHT22;2803;47.916;8.074;2023-01-19T06:20:13;-2.80;99.90
5560;DHT22;2803;47.916;8.074;2023-01-19T06:22:40;-2.70;99.90
5560;DHT22;2803;47.916;8.074;2023-01-19T06:25:07;-3.30;99.90
5560;DHT22;2803;47.916;8.074;2023-01-19T06:27:34;-3.60;99.90
5560;DHT22;2803;47.916;8.074;2023-01-19T06:30:01;-3.70;99.90
5560;DHT22;2803;47.916;8.074;2023-01-19T06:32:29;-3.90;99.90
5560;DHT22;2803;47.916;8.074;2023-01-19T06:34:57;-3.30;99.90
5560;DHT22;2803;47.916;8.074;2023-01-19T06:37:24;-2.90;99.90
5560;DHT22;2803;47.916;8.074;2023-01-19T06:39:52;-3.50;99.90
5560;DHT22;2803;47.916;8.074;2023-01-19T06:42:19;-3.50;99.90
5560;DHT22;2803;47.916;8.074;2023-01-19T06:44:46;-4.00;99.90
5560;DHT22;2803;47.916;8.074;2023-01-19T06:47:13;-3.50;99.90
5560;DHT22;2803;47.916;8.074;2023-01-19T06:49:39;-4.10;99.90
5560;DHT22;2803;47.916;8.074;2023-01-19T06:52:09;-3.70;99.90
5560;DHT22;2803;47.916;8.074;2023-01-19T06:54:36;-3.10;99.90
5560;DHT22;2803;47.916;8.074;2023-01-19T06:57:02;-3.00;99.90
5560;DHT22;2803;47.916;8.074;2023-01-19T06:59:30;-2.80;99.90
5560;DHT22;2803;47.916;8.074;2023-01-19T07:01:57;-3.20;99.90
5560;DHT22;2803;47.916;8.074;2023-01-19T07:04:24;-3.10;99.90
5560;DHT22;2803;47.916;8.074;2023-01-19T07:06:51;-3.50;99.90
5560;DHT22;2803;47.916;8.074;2023-01-19T07:09:19;-3.70;99.90
5560;DHT22;2803;47.916;8.074;2023-01-19T07:11:49;-3.80;99.90
5560;DHT22;2803;47.916;8.074;2023-01-19T07:14:18;-3.80;99.90
5560;DHT22;2803;47.916;8.074;2023-01-19T07:16:45;-4.10;99.90
5560;DHT22;2803;47.916;8.074;2023-01-19T07:19:12;-4.40;99.90
5560;DHT22;2803;47.916;8.074;2023-01-19T07:21:39;-4.20;99.90
5560;DHT22;2803;47.916;8.074;2023-01-19T07:24:06;-3.60;99.90
5560;DHT22;2803;47.916;8.074;2023-01-19T07:26:34;-3.30;99.90
5560;DHT22;2803;47.916;8.074;2023-01-19T07:29:01;-3.10;99.90
5560;DHT22;2803;47.916;8.074;2023-01-19T07:31:28;-3.10;99.90
5560;DHT22;2803;47.916;8.074;2023-01-19T07:33:55;-3.10;99.90
5560;DHT22;2803;47.916;8.074;2023-01-19T07:36:22;-3.00;99.90
5560;DHT22;2803;47.916;8.074;2023-01-19T07:38:50;-2.80;99.90
5560;DHT22;2803;47.916;8.074;2023-01-19T07:41:16;-3.40;99.90
5560;DHT22;2803;47.916;8.074;2023-01-19T07:43:44;-3.40;99.90
5560;DHT22;2803;47.916;8.074;2023-01-19T07:46:11;-3.10;99.90
5560;DHT22;2803;47.916;8.074;2023-01-19T07:48:38;-3.00;99.90
5560;DHT22;2803;47.916;8.074;2023-01-19T07:51:05;-2.80;99.90
5560;DHT22;2803;47.916;8.074;2023-01-19T07:53:33;-2.60;99.90
5560;DHT22;2803;47.916;8.074;2023-01-19T07:56:00;-2.30;99.90
5560;DHT22;2803;47.916;8.074;2023-01-19T07:58:26;-3.10;99.90
5560;DHT22;2803;47.916;8.074;2023-01-19T08:00:54;-2.40;99.90
5560;DHT22;2803;47.916;8.074;2023-01-19T08:03:21;-3.10;99.90
5560;DHT22;2803;47.916;8.074;2023-01-19T08:05:49;-2.70;99.90
5560;DHT22;2803;47.916;8.074;2023-01-19T08:08:17;-2.20;99.90
5560;DHT22;2803;47.916;8.074;2023-01-19T08:10:44;-1.80;99.90
5560;DHT22;2803;47.916;8.074;2023-01-19T08:13:10;-1.70;99.90
5560;DHT22;2803;47.916;8.074;2023-01-19T08:15:37;-1.60;99.90
5560;DHT22;2803;47.916;8.074;2023-01-19T08:18:05;-1.20;99.90
5560;DHT22;2803;47.916;8.074;2023-01-19T08:20:35;-1.20;99.90
5560;DHT22;2803;47.916;8.074;2023-01-19T08:23:02;-0.80;99.90
5560;DHT22;2803;47.916;8.074;2023-01-19T08:25:32;-0.70;99.90
5560;DHT22;2803;47.916;8.074;2023-01-19T08:27:59;-0.50;99.90
5560;DHT22;2803;47.916;8.074;2023-01-19T08:30:26;-0.30;99.90
5560;DHT22;2803;47.916;8.074;2023-01-19T08:32:55;-0.10;99.90
5560;DHT22;2803;47.916;8.074;2023-01-19T08:35:29;-0.60;99.90
5560;DHT22;2803;47.916;8.074;2023-01-19T08:37:56;-0.40;99.90
5560;DHT22;2803;47.916;8.074;2023-01-19T08:40:26;-0.20;99.90
5560;DHT22;2803;47.916;8.074;2023-01-19T08:42:57;-0.10;99.90
5560;DHT22;2803;47.916;8.074;2023-01-19T08:45:25;-0.30;99.90
5560;DHT22;2803;47.916;8.074;2023-01-19T08:47:54;0.10;99.90
5560;DHT22;2803;47.916;8.074;2023-01-19T08:50:20;0.50;99.90
5560;DHT22;2803;47.916;8.074;2023-01-19T08:52:49;0.90;99.90
5560;DHT22;2803;47.916;8.074;2023-01-19T08:55:16;0.80;99.90
5560;DHT22;2803;47.916;8.074;2023-01-19T08:57:43;0.50;99.90
5560;DHT22;2803;47.916;8.074;2023-01-19T09:00:10;0.60;99.90
5560;DHT22;2803;47.916;8.074;2023-01-19T09:02:37;1.00;99.90
5560;DHT22;2803;47.916;8.074;2023-01-19T09:05:04;1.00;99.90
5560;DHT22;2803;47.916;8.074;2023-01-19T09:07:31;1.30;99.90
5560;DHT22;2803;47.916;8.074;2023-01-19T09:09:59;1.30;99.90
5560;DHT22;2803;47.916;8.074;2023-01-19T09:12:26;1.50;99.90
5560;DHT22;2803;47.916;8.074;2023-01-19T09:14:52;1.70;99.90
5560;DHT22;2803;47.916;8.074;2023-01-19T09:17:19;1.90;99.90
5560;DHT22;2803;47.916;8.074;2023-01-19T09:19:46;2.10;99.90
5560;DHT22;2803;47.916;8.074;2023-01-19T09:22:13;2.40;99.90
5560;DHT22;2803;47.916;8.074;2023-01-19T09:24:39;2.60;99.90
5560;DHT22;2803;47.916;8.074;2023-01-19T09:27:07;2.40;99.90
5560;DHT22;2803;47.916;8.074;2023-01-19T09:29:34;2.70;99.90
5560;DHT22;2803;47.916;8.074;2023-01-19T09:32:01;2.70;99.90
5560;DHT22;2803;47.916;8.074;2023-01-19T09:34:28;2.70;99.90
5560;DHT22;2803;47.916;8.074;2023-01-19T09:36:55;2.90;99.90
5560;DHT22;2803;47.916;8.074;2023-01-19T09:39:22;3.10;99.90
5560;DHT22;2803;47.916;8.074;2023-01-19T09:41:55;3.60;99.90
5560;DHT22;2803;47.916;8.074;2023-01-19T09:44:28;4.00;99.90
5560;DHT22;2803;47.916;8.074;2023-01-19T09:46:58;3.70;99.90
5560;DHT22;2803;47.916;8.074;2023-01-19T09:49:31;3.10;99.90
5560;DHT22;2803;47.916;8.074;2023-01-19T09:52:00;3.20;99.90
5560;DHT22;2803;47.916;8.074;2023-01-19T09:54:30;3.60;99.90
5560;DHT22;2803;47.916;8.074;2023-01-19T09:57:00;4.00;99.90
5560;DHT22;2803;47.916;8.074;2023-01-19T09:59:30;3.90;99.90
5560;DHT22;2803;47.916;8.074;2023-01-19T10:02:13;3.50;99.90
5560;DHT22;2803;47.916;8.074;2023-01-19T10:04:43;3.50;99.90
5560;DHT22;2803;47.916;8.074;2023-01-19T10:07:22;4.10;99.90
5560;DHT22;2803;47.916;8.074;2023-01-19T10:10:04;4.50;99.90
5560;DHT22;2803;47.916;8.074;2023-01-19T10:12:41;5.10;99.90
5560;DHT22;2803;47.916;8.074;2023-01-19T10:15:19;5.00;99.90
5560;DHT22;2803;47.916;8.074;2023-01-19T10:17:58;5.30;99.90
5560;DHT22;2803;47.916;8.074;2023-01-19T10:20:31;5.90;99.90
5560;DHT22;2803;47.916;8.074;2023-01-19T10:23:03;5.50;99.90
5560;DHT22;2803;47.916;8.074;2023-01-19T10:25:31;5.70;99.90
5560;DHT22;2803;47.916;8.074;2023-01-19T10:27:59;5.80;99.90
5560;DHT22;2803;47.916;8.074;2023-01-19T10:30:28;5.70;99.90
5560;DHT22;2803;47.916;8.074;2023-01-19T10:32:55;5.70;99.90
5560;DHT22;2803;47.916;8.074;2023-01-19T10:35:23;5.50;99.90
5560;DHT22;2803;47.916;8.074;2023-01-19T10:37:51;6.00;99.90
5560;DHT22;2803;47.916;8.074;2023-01-19T10:40:26;6.30;99.90
5560;DHT22;2803;47.916;8.074;2023-01-19T10:42:56;6.70;99.90
5560;DHT22;2803;47.916;8.074;2023-01-19T10:45:25;6.80;99.90
5560;DHT22;2803;47.916;8.074;2023-01-19T10:47:57;7.00;99.90
5560;DHT22;2803;47.916;8.074;2023-01-19T10:50:26;6.90;99.90
5560;DHT22;2803;47.916;8.074;2023-01-19T10:52:54;6.40;99.90
5560;DHT22;2803;47.916;8.074;2023-01-19T10:55:25;6.00;99.90
5560;DHT22;2803;47.916;8.074;2023-01-19T10:57:53;5.60;99.90
5560;DHT22;2803;47.916;8.074;2023-01-19T11:00:33;5.70;99.90
5560;DHT22;2803;47.916;8.074;2023-01-19T11:03:03;6.00;99.90
5560;DHT22;2803;47.916;8.074;2023-01-19T11:05:34;5.90;99.90
5560;DHT22;2803;47.916;8.074;2023-01-19T11:08:21;5.40;99.90
5560;DHT22;2803;47.916;8.074;2023-01-19T11:10:51;5.50;99.90
5560;DHT22;2803;47.916;8.074;2023-01-19T11:13:18;5.50;99.90
5560;DHT22;2803;47.916;8.074;2023-01-19T11:15:49;5.60;99.90
5560;DHT22;2803;47.916;8.074;2023-01-19T11:18:23;5.60;99.90
5560;DHT22;2803;47.916;8.074;2023-01-19T11:20:54;5.70;99.90
5560;DHT22;2803;47.916;8.074;2023-01-19T11:23:25;5.90;99.90
5560;DHT22;2803;47.916;8.074;2023-01-19T11:25:56;5.90;99.90
5560;DHT22;2803;47.916;8.074;2023-01-19T11:28:27;6.00;99.90
5560;DHT22;2803;47.916;8.074;2023-01-19T11:30:57;6.00;99.90
5560;DHT22;2803;47.916;8.074;2023-01-19T11:33:33;6.10;99.90
5560;DHT22;2803;47.916;8.074;2023-01-19T11:36:03;6.10;99.90
5560;DHT22;2803;47.916;8.074;2023-01-19T11:38:31;5.70;99.90
5560;DHT22;2803;47.916;8.074;2023-01-19T11:40:58;5.80;99.90
5560;DHT22;2803;47.916;8.074;2023-01-19T11:43:29;5.60;99.90
5560;DHT22;2803;47.916;8.074;2023-01-19T11:45:56;5.70;99.90
5560;DHT22;2803;47.916;8.074;2023-01-19T11:48:28;6.10;99.90
5560;DHT22;2803;47.916;8.074;2023-01-19T11:50:59;6.10;99.90
5560;DHT22;2803;47.916;8.074;2023-01-19T11:53:32;6.30;99.90
5560;DHT22;2803;47.916;8.074;2023-01-19T11:56:02;5.90;99.90
5560;DHT22;2803;47.916;8.074;2023-01-19T11:58:30;6.00;99.90
5560;DHT22;2803;47.916;8.074;2023-01-19T12:01:01;6.00;99.90
5560;DHT22;2803;47.916;8.074;2023-01-19T12:03:33;6.00;99.90
5560;DHT22;2803;47.916;8.074;2023-01-19T12:06:04;6.10;99.90
5560;DHT22;2803;47.916;8.074;2023-01-19T12:08:34;6.10;99.90
5560;DHT22;2803;47.916;8.074;2023-01-19T12:11:03;5.80;99.90
5560;DHT22;2803;47.916;8.074;2023-01-19T12:13:32;5.90;99.90
5560;DHT22;2803;47.916;8.074;2023-01-19T12:16:03;5.30;99.90
5560;DHT22;2803;47.916;8.074;2023-01-19T12:18:36;5.40;99.90
5560;DHT22;2803;47.916;8.074;2023-01-19T12:21:04;5.60;99.90
5560;DHT22;2803;47.916;8.074;2023-01-19T12:23:39;5.70;99.90
5560;DHT22;2803;47.916;8.074;2023-01-19T12:26:25;5.60;99.90
5560;DHT22;2803;47.916;8.074;2023-01-19T12:28:55;5.70;99.90
5560;DHT22;2803;47.916;8.074;2023-01-19T12:31:25;5.90;99.90
5560;DHT22;2803;47.916;8.074;2023-01-19T12:33:53;5.50;99.90
5560;DHT22;2803;47.916;8.074;2023-01-19T12:36:36;5.40;99.90
5560;DHT22;2803;47.916;8.074;2023-01-19T12:39:05;5.40;99.90
5560;DHT22;2803;47.916;8.074;2023-01-19T12:41:38;5.10;99.90
5560;DHT22;2803;47.916;8.074;2023-01-19T12:44:24;5.00;99.90
5560;DHT22;2803;47.916;8.074;2023-01-19T12:46:55;5.10;99.90
5560;DHT22;2803;47.916;8.074;2023-01-19T12:49:32;5.10;99.90
5560;DHT22;2803;47.916;8.074;2023-01-19T12:52:23;5.30;99.90
5560;DHT22;2803;47.916;8.074;2023-01-19T12:54:55;4.90;99.90
5560;DHT22;2803;47.916;8.074;2023-01-19T12:57:26;4.70;99.90
5560;DHT22;2803;47.916;8.074;2023-01-19T12:59:55;5.00;99.90
5560;DHT22;2803;47.916;8.074;2023-01-19T13:02:40;5.20;99.90
5560;DHT22;2803;47.916;8.074;2023-01-19T13:05:13;5.40;99.90
5560;DHT22;2803;47.916;8.074;2023-01-19T13:10:53;5.30;99.90
5560;DHT22;2803;47.916;8.074;2023-01-19T13:13:22;5.20;99.90
5560;DHT22;2803;47.916;8.074;2023-01-19T13:15:49;5.30;99.90
5560;DHT22;2803;47.916;8.074;2023-01-19T13:18:17;5.30;99.90
5560;DHT22;2803;47.916;8.074;2023-01-19T13:20:49;5.60;99.90
5560;DHT22;2803;47.916;8.074;2023-01-19T13:23:21;5.50;99.90
5560;DHT22;2803;47.916;8.074;2023-01-19T13:25:53;5.40;99.90
5560;DHT22;2803;47.916;8.074;2023-01-19T13:28:29;5.30;99.90
5560;DHT22;2803;47.916;8.074;2023-01-19T13:30:58;5.10;99.90
5560;DHT22;2803;47.916;8.074;2023-01-19T13:33:32;5.10;99.90
5560;DHT22;2803;47.916;8.074;2023-01-19T13:36:02;4.90;99.90
5560;DHT22;2803;47.916;8.074;2023-01-19T13:38:29;5.10;99.90
5560;DHT22;2803;47.916;8.074;2023-01-19T13:40:59;5.10;99.90
5560;DHT22;2803;47.916;8.074;2023-01-19T13:43:31;5.10;99.90
5560;DHT22;2803;47.916;8.074;2023-01-19T13:46:00;5.20;99.90
5560;DHT22;2803;47.916;8.074;2023-01-19T13:48:29;4.80;99.90
5560;DHT22;2803;47.916;8.074;2023-01-19T13:51:00;4.70;99.90
5560;DHT22;2803;47.916;8.074;2023-01-19T13:53:28;4.90;99.90
5560;DHT22;2803;47.916;8.074;2023-01-19T13:56:15;5.00;99.90
5560;DHT22;2803;47.916;8.074;2023-01-19T13:58:42;4.80;99.90
5560;DHT22;2803;47.916;8.074;2023-01-19T14:01:19;4.80;99.90
5560;DHT22;2803;47.916;8.074;2023-01-19T14:03:46;4.80;99.90
5560;DHT22;2803;47.916;8.074;2023-01-19T14:06:22;4.70;99.90
5560;DHT22;2803;47.916;8.074;2023-01-19T14:09:05;4.80;99.90
5560;DHT22;2803;47.916;8.074;2023-01-19T14:11:32;4.90;99.90
5560;DHT22;2803;47.916;8.074;2023-01-19T14:13:59;5.10;99.90
5560;DHT22;2803;47.916;8.074;2023-01-19T14:16:26;5.00;99.90
5560;DHT22;2803;47.916;8.074;2023-01-19T14:18:58;4.90;99.90
5560;DHT22;2803;47.916;8.074;2023-01-19T14:21:36;4.60;99.90
5560;DHT22;2803;47.916;8.074;2023-01-19T14:24:09;4.60;99.90
5560;DHT22;2803;47.916;8.074;2023-01-19T14:26:43;4.40;99.90
5560;DHT22;2803;47.916;8.074;2023-01-19T14:29:17;4.60;99.90
5560;DHT22;2803;47.916;8.074;2023-01-19T14:31:45;4.50;99.90
5560;DHT22;2803;47.916;8.074;2023-01-19T14:34:28;4.50;99.90
5560;DHT22;2803;47.916;8.074;2023-01-19T14:36:55;4.50;99.90
5560;DHT22;2803;47.916;8.074;2023-01-19T14:39:26;4.80;99.90
5560;DHT22;2803;47.916;8.074;2023-01-19T14:41:53;5.00;99.90
5560;DHT22;2803;47.916;8.074;2023-01-19T14:44:26;5.00;99.90
5560;DHT22;2803;47.916;8.074;2023-01-19T14:46:53;5.00;99.90
5560;DHT22;2803;47.916;8.074;2023-01-19T14:49:28;5.10;99.90
5560;DHT22;2803;47.916;8.074;2023-01-19T14:51:55;5.10;99.90
5560;DHT22;2803;47.916;8.074;2023-01-19T14:54:30;4.30;99.90
5560;DHT22;2803;47.916;8.074;2023-01-19T14:56:58;3.90;99.90
5560;DHT22;2803;47.916;8.074;2023-01-19T14:59:25;4.00;99.90
5560;DHT22;2803;47.916;8.074;2023-01-19T15:01:51;4.10;99.90
5560;DHT22;2803;47.916;8.074;2023-01-19T15:04:18;4.40;99.90
5560;DHT22;2803;47.916;8.074;2023-01-19T15:06:44;4.60;99.90
5560;DHT22;2803;47.916;8.074;2023-01-19T15:09:12;4.80;99.90
5560;DHT22;2803;47.916;8.074;2023-01-19T15:11:41;4.80;99.90
5560;DHT22;2803;47.916;8.074;2023-01-19T15:14:11;4.80;99.90
5560;DHT22;2803;47.916;8.074;2023-01-19T15:16:38;5.00;99.90
5560;DHT22;2803;47.916;8.074;2023-01-19T15:19:07;4.90;99.90
5560;DHT22;2803;47.916;8.074;2023-01-19T15:21:34;4.80;99.90
5560;DHT22;2803;47.916;8.074;2023-01-19T15:24:01;4.80;99.90
5560;DHT22;2803;47.916;8.074;2023-01-19T15:26:28;5.00;99.90
5560;DHT22;2803;47.916;8.074;2023-01-19T15:28:56;5.00;99.90
5560;DHT22;2803;47.916;8.074;2023-01-19T15:31:24;4.80;99.90
5560;DHT22;2803;47.916;8.074;2023-01-19T15:33:52;4.70;99.90
5560;DHT22;2803;47.916;8.074;2023-01-19T15:36:20;4.70;99.90
5560;DHT22;2803;47.916;8.074;2023-01-19T15:38:48;4.80;99.90
5560;DHT22;2803;47.916;8.074;2023-01-19T15:41:21;4.90;99.90
5560;DHT22;2803;47.916;8.074;2023-01-19T15:43:49;5.00;99.90
5560;DHT22;2803;47.916;8.074;2023-01-19T15:46:18;5.10;99.90
5560;DHT22;2803;47.916;8.074;2023-01-19T15:48:45;5.20;99.90
5560;DHT22;2803;47.916;8.074;2023-01-19T15:51:12;5.20;99.90
5560;DHT22;2803;47.916;8.074;2023-01-19T15:53:39;5.20;99.90
5560;DHT22;2803;47.916;8.074;2023-01-19T15:56:12;5.20;99.90
5560;DHT22;2803;47.916;8.074;2023-01-19T15:58:39;5.20;99.90
5560;DHT22;2803;47.916;8.074;2023-01-19T16:01:09;5.10;99.90
5560;DHT22;2803;47.916;8.074;2023-01-19T16:03:38;5.20;99.90
5560;DHT22;2803;47.916;8.074;2023-01-19T16:06:05;5.10;99.90
5560;DHT22;2803;47.916;8.074;2023-01-19T16:08:32;4.90;99.90
5560;DHT22;2803;47.916;8.074;2023-01-19T16:11:02;5.00;99.90
5560;DHT22;2803;47.916;8.074;2023-01-19T16:13:29;5.00;99.90
5560;DHT22;2803;47.916;8.074;2023-01-19T16:16:00;5.00;99.90
5560;DHT22;2803;47.916;8.074;2023-01-19T16:18:27;5.00;99.90
5560;DHT22;2803;47.916;8.074;2023-01-19T16:20:55;5.00;99.90
5560;DHT22;2803;47.916;8.074;2023-01-19T16:23:21;5.00;99.90
5560;DHT22;2803;47.916;8.074;2023-01-19T16:25:57;4.30;99.90